sensor_id;sensor_type;location;lat;lon;timestamp;pressure;altitude;pressure_sealevel;temperature;humidity
50057;BME280;36875;49.468;11.200;2022-09-03T00:02:27;97789.28;;;21.48;49.51
50057;BME280;36875;49.468;11.200;2022-09-03T00:05:02;97783.81;;;21.48;49.56
50057;BME280;36875;49.468;11.200;2022-09-03T00:07:35;97777.53;;;21.47;49.43
50057;BME280;36875;49.468;11.200;2022-09-03T00:10:07;97776.75;;;21.47;49.61
50057;BME280;36875;49.468;11.200;2022-09-03T00:12:37;97776.75;;;21.47;49.61
50057;BME280;36875;49.468;11.200;2022-09-03T00:15:06;97767.84;;;21.41;49.32
50057;BME280;36875;49.468;11.200;2022-09-03T00:17:36;97768.34;;;21.43;49.73
50057;BME280;36875;49.468;11.200;2022-09-03T00:20:05;97770.75;;;21.45;49.44
50057;BME280;36875;49.468;11.200;2022-09-03T00:22:34;97763.34;;;21.36;49.63
50057;BME280;36875;49.468;11.200;2022-09-03T00:25:04;97788.00;;;21.45;49.48
50057;BME280;36875;49.468;11.200;2022-09-03T00:27:36;97769.78;;;21.41;49.24
50057;BME280;36875;49.468;11.200;2022-09-03T00:30:07;97776.56;;;21.43;49.52
50057;BME280;36875;49.468;11.200;2022-09-03T00:32:40;97783.63;;;21.44;49.15
50057;BME280;36875;49.468;11.200;2022-09-03T00:35:13;97767.03;;;21.41;49.36
50057;BME280;36875;49.468;11.200;2022-09-03T00:37:41;97769.47;;;21.42;49.41
50057;BME280;36875;49.468;11.200;2022-09-03T00:40:11;97773.31;;;21.41;49.41
50057;BME280;36875;49.468;11.200;2022-09-03T00:42:46;97765.91;;;21.42;49.25
50057;BME280;36875;49.468;11.200;2022-09-03T00:45:20;97769.78;;;21.41;49.38
50057;BME280;36875;49.468;11.200;2022-09-03T00:48:04;97772.50;;;21.41;49.45
50057;BME280;36875;49.468;11.200;2022-09-03T00:50:42;97768.50;;;21.38;49.34
50057;BME280;36875;49.468;11.200;2022-09-03T00:53:15;97761.72;;;21.35;49.31
50057;BME280;36875;49.468;11.200;2022-09-03T00:55:48;97763.97;;;21.33;49.38
50057;BME280;36875;49.468;11.200;2022-09-03T00:58:48;97765.44;;;21.40;49.25
50057;BME280;36875;49.468;11.200;2022-09-03T01:01:21;97777.50;;;21.38;49.30
50057;BME280;36875;49.468;11.200;2022-09-03T01:03:57;97766.56;;;21.38;49.66
50057;BME280;36875;49.468;11.200;2022-09-03T01:06:37;97772.84;;;21.39;49.16
50057;BME280;36875;49.468;11.200;2022-09-03T01:09:18;97777.81;;;21.37;49.24
50057;BME280;36875;49.468;11.200;2022-09-03T01:11:53;97772.34;;;21.37;49.18
50057;BME280;36875;49.468;11.200;2022-09-03T01:14:40;97769.63;;;21.37;49.29
50057;BME280;36875;49.468;11.200;2022-09-03T01:17:13;97772.66;;;21.35;49.29
50057;BME280;36875;49.468;11.200;2022-09-03T01:20:01;97779.78;;;21.36;49.44
50057;BME280;36875;49.468;11.200;2022-09-03T01:22:56;97775.75;;;21.34;49.32
50057;BME280;36875;49.468;11.200;2022-09-03T01:25:39;97776.22;;;21.36;49.26
50057;BME280;36875;49.468;11.200;2022-09-03T01:28:16;97782.81;;;21.35;49.15
50057;BME280;36875;49.468;11.200;2022-09-03T01:30:47;97782.03;;;21.34;49.20
50057;BME280;36875;49.468;11.200;2022-09-03T01:33:20;97781.22;;;21.34;49.26
50057;BME280;36875;49.468;11.200;2022-09-03T01:35:52;97775.75;;;21.34;49.12
50057;BME280;36875;49.468;11.200;2022-09-03T01:38:26;97787.03;;;21.32;49.16
50057;BME280;36875;49.468;11.200;2022-09-03T01:41:07;97783.16;;;21.33;49.18
50057;BME280;36875;49.468;11.200;2022-09-03T01:44:00;97773.34;;;21.32;49.27
50057;BME280;36875;49.468;11.200;2022-09-03T01:46:37;97782.66;;;21.31;48.96
50057;BME280;36875;49.468;11.200;2022-09-03T01:49:12;97767.38;;;21.30;49.37
50057;BME280;36875;49.468;11.200;2022-09-03T01:51:40;97779.13;;;21.31;49.14
50057;BME280;36875;49.468;11.200;2022-09-03T01:57:16;97772.84;;;21.30;49.08
50057;BME280;36875;49.468;11.200;2022-09-03T01:59:54;97778.34;;;21.30;49.35
50057;BME280;36875;49.468;11.200;2022-09-03T02:02:24;97768.66;;;21.24;49.39
50057;BME280;36875;49.468;11.200;2022-09-03T02:04:57;97773.50;;;21.27;49.42
50057;BME280;36875;49.468;11.200;2022-09-03T02:07:25;97782.97;;;21.30;49.16
50057;BME280;36875;49.468;11.200;2022-09-03T02:09:53;97767.69;;;21.29;48.90
50057;BME280;36875;49.468;11.200;2022-09-03T02:12:18;97777.03;;;21.28;49.36
50057;BME280;36875;49.468;11.200;2022-09-03T02:14:45;97787.19;;;21.27;49.31
50057;BME280;36875;49.468;11.200;2022-09-03T02:17:12;97782.03;;;21.26;49.33
50057;BME280;36875;49.468;11.200;2022-09-03T02:19:38;97787.97;;;21.28;49.00
50057;BME280;36875;49.468;11.200;2022-09-03T02:22:04;97789.13;;;21.27;49.12
50057;BME280;36875;49.468;11.200;2022-09-03T02:24:30;97780.09;;;21.26;49.30
50057;BME280;36875;49.468;11.200;2022-09-03T02:26:55;97780.09;;;21.26;49.12
50057;BME280;36875;49.468;11.200;2022-09-03T02:29:21;97775.75;;;21.25;49.18
50057;BME280;36875;49.468;11.200;2022-09-03T02:31:48;97782.03;;;21.26;49.32
50057;BME280;36875;49.468;11.200;2022-09-03T02:34:15;97782.03;;;21.26;49.18
50057;BME280;36875;49.468;11.200;2022-09-03T02:36:42;97786.69;;;21.25;49.18
50057;BME280;36875;49.468;11.200;2022-09-03T02:39:10;97779.59;;;21.24;49.05
50057;BME280;36875;49.468;11.200;2022-09-03T02:41:36;97777.69;;;21.25;49.09
50057;BME280;36875;49.468;11.200;2022-09-03T02:44:04;97778.81;;;21.24;48.97
50057;BME280;36875;49.468;11.200;2022-09-03T02:46:33;97779.59;;;21.24;49.20
50057;BME280;36875;49.468;11.200;2022-09-03T02:49:00;97772.69;;;21.18;49.41
50057;BME280;36875;49.468;11.200;2022-09-03T02:51:31;97778.81;;;21.24;49.06
50057;BME280;36875;49.468;11.200;2022-09-03T02:53:56;97771.25;;;21.21;49.09
50057;BME280;36875;49.468;11.200;2022-09-03T02:56:22;97781.88;;;21.22;49.16
50057;BME280;36875;49.468;11.200;2022-09-03T02:58:52;97776.38;;;21.22;48.97
50057;BME280;36875;49.468;11.200;2022-09-03T03:01:18;97775.59;;;21.22;49.14
50057;BME280;36875;49.468;11.200;2022-09-03T03:03:44;97775.59;;;21.22;49.13
50057;BME280;36875;49.468;11.200;2022-09-03T03:06:10;97772.22;;;21.16;49.01
50057;BME280;36875;49.468;11.200;2022-09-03T03:08:39;97773.97;;;21.21;49.02
50057;BME280;36875;49.468;11.200;2022-09-03T03:11:05;97778.34;;;21.22;49.26
50057;BME280;36875;49.468;11.200;2022-09-03T03:13:32;97769.31;;;21.21;49.25
50057;BME280;36875;49.468;11.200;2022-09-03T03:15:59;97770.44;;;21.20;48.95
50057;BME280;36875;49.468;11.200;2022-09-03T03:18:25;97772.38;;;21.20;49.11
50057;BME280;36875;49.468;11.200;2022-09-03T03:20:51;97779.75;;;21.19;49.01
50057;BME280;36875;49.468;11.200;2022-09-03T03:23:17;97779.75;;;21.19;49.29
50057;BME280;36875;49.468;11.200;2022-09-03T03:25:44;97775.44;;;21.18;49.22
50057;BME280;36875;49.468;11.200;2022-09-03T03:28:10;97775.44;;;21.18;48.99
50057;BME280;36875;49.468;11.200;2022-09-03T03:30:38;97782.03;;;21.17;48.85
50057;BME280;36875;49.468;11.200;2022-09-03T03:33:05;97771.75;;;21.14;48.96
50057;BME280;36875;49.468;11.200;2022-09-03T03:35:31;97753.84;;;21.08;49.24
50057;BME280;36875;49.468;11.200;2022-09-03T03:37:57;97761.28;;;21.16;49.22
50057;BME280;36875;49.468;11.200;2022-09-03T03:40:23;97772.22;;;21.16;49.12
50057;BME280;36875;49.468;11.200;2022-09-03T03:42:50;97774.13;;;21.15;48.93
50057;BME280;36875;49.468;11.200;2022-09-03T03:45:15;97770.59;;;21.15;49.01
50057;BME280;36875;49.468;11.200;2022-09-03T03:47:41;97770.59;;;21.15;49.12
50057;BME280;36875;49.468;11.200;2022-09-03T03:50:07;97769.78;;;21.14;49.11
50057;BME280;36875;49.468;11.200;2022-09-03T03:52:33;97767.38;;;21.13;48.90
50057;BME280;36875;49.468;11.200;2022-09-03T03:54:59;97765.78;;;21.12;49.06
50057;BME280;36875;49.468;11.200;2022-09-03T03:57:24;97764.16;;;21.11;48.95
50057;BME280;36875;49.468;11.200;2022-09-03T03:59:52;97770.44;;;21.11;49.18
50057;BME280;36875;49.468;11.200;2022-09-03T04:02:17;97765.78;;;21.12;48.96
50057;BME280;36875;49.468;11.200;2022-09-03T04:04:43;97758.69;;;21.11;48.98
50057;BME280;36875;49.468;11.200;2022-09-03T04:07:09;97761.75;;;21.09;49.19
50057;BME280;36875;49.468;11.200;2022-09-03T04:09:34;97759.81;;;21.10;48.95
50057;BME280;36875;49.468;11.200;2022-09-03T04:12:00;97757.06;;;21.10;49.05
50057;BME280;36875;49.468;11.200;2022-09-03T04:14:26;97760.94;;;21.09;49.13
50057;BME280;36875;49.468;11.200;2022-09-03T04:16:53;97757.56;;;21.03;48.99
50057;BME280;36875;49.468;11.200;2022-09-03T04:19:19;97767.53;;;21.08;48.94
50057;BME280;36875;49.468;11.200;2022-09-03T04:21:44;97759.31;;;21.08;48.98
50057;BME280;36875;49.468;11.200;2022-09-03T04:24:10;97745.16;;;21.06;49.15
50057;BME280;36875;49.468;11.200;2022-09-03T04:26:36;97751.44;;;21.06;48.96
50057;BME280;36875;49.468;11.200;2022-09-03T04:29:04;97750.31;;;21.07;48.90
50057;BME280;36875;49.468;11.200;2022-09-03T04:31:30;97755.78;;;21.07;48.90
50057;BME280;36875;49.468;11.200;2022-09-03T04:33:58;97751.44;;;21.06;49.05
50057;BME280;36875;49.468;11.200;2022-09-03T04:36:25;97761.59;;;21.06;48.73
50057;BME280;36875;49.468;11.200;2022-09-03T04:38:54;97771.41;;;21.07;48.98
50057;BME280;36875;49.468;11.200;2022-09-03T04:41:21;97773.66;;;21.05;48.97
50057;BME280;36875;49.468;11.200;2022-09-03T04:43:49;97770.09;;;21.04;48.87
50057;BME280;36875;49.468;11.200;2022-09-03T04:46:15;97765.47;;;21.05;49.03
50057;BME280;36875;49.468;11.200;2022-09-03T04:48:41;97765.47;;;21.05;48.67
50057;BME280;36875;49.468;11.200;2022-09-03T04:51:10;97774.78;;;21.04;48.96
50057;BME280;36875;49.468;11.200;2022-09-03T04:53:37;97768.19;;;21.05;48.94
50057;BME280;36875;49.468;11.200;2022-09-03T04:56:11;97777.53;;;21.04;48.86
50057;BME280;36875;49.468;11.200;2022-09-03T04:58:37;97773.97;;;21.03;48.74
50057;BME280;36875;49.468;11.200;2022-09-03T05:01:06;97787.66;;;21.03;49.00
50057;BME280;36875;49.468;11.200;2022-09-03T05:03:33;97792.81;;;21.05;48.79
50057;BME280;36875;49.468;11.200;2022-09-03T05:05:59;97783.31;;;21.02;49.05
50057;BME280;36875;49.468;11.200;2022-09-03T05:08:25;97782.50;;;21.02;48.90
50057;BME280;36875;49.468;11.200;2022-09-03T05:10:57;97784.13;;;21.03;48.99
50057;BME280;36875;49.468;11.200;2022-09-03T05:13:24;97796.19;;;21.02;48.88
50057;BME280;36875;49.468;11.200;2022-09-03T05:15:50;97790.72;;;21.02;48.64
50057;BME280;36875;49.468;11.200;2022-09-03T05:18:15;97787.97;;;21.02;49.02
50057;BME280;36875;49.468;11.200;2022-09-03T05:20:42;97781.72;;;21.01;48.67
50057;BME280;36875;49.468;11.200;2022-09-03T05:23:07;97793.44;;;21.02;49.01
50057;BME280;36875;49.468;11.200;2022-09-03T05:25:34;97769.28;;;20.95;49.06
50057;BME280;36875;49.468;11.200;2022-09-03T05:28:02;97782.50;;;21.02;48.93
50057;BME280;36875;49.468;11.200;2022-09-03T05:30:29;97777.84;;;21.02;48.94
50057;BME280;36875;49.468;11.200;2022-09-03T05:32:55;97780.88;;;21.01;48.89
50057;BME280;36875;49.468;11.200;2022-09-03T05:35:21;97782.19;;;21.03;49.02
50057;BME280;36875;49.468;11.200;2022-09-03T05:37:47;97787.34;;;21.05;48.81
50057;BME280;36875;49.468;11.200;2022-09-03T05:40:13;97785.41;;;21.05;48.64
50057;BME280;36875;49.468;11.200;2022-09-03T05:42:40;97786.53;;;21.04;48.64
50057;BME280;36875;49.468;11.200;2022-09-03T05:45:07;97789.41;;;21.08;48.80
50057;BME280;36875;49.468;11.200;2022-09-03T05:47:36;97788.94;;;21.06;48.73
50057;BME280;36875;49.468;11.200;2022-09-03T05:50:01;97783.78;;;21.04;48.92
50057;BME280;36875;49.468;11.200;2022-09-03T05:52:27;97792.81;;;21.05;48.71
50057;BME280;36875;49.468;11.200;2022-09-03T05:54:52;97787.97;;;21.02;49.03
50057;BME280;36875;49.468;11.200;2022-09-03T05:57:18;97798.28;;;21.05;48.69
50057;BME280;36875;49.468;11.200;2022-09-03T05:59:45;97794.25;;;21.02;48.66
50057;BME280;36875;49.468;11.200;2022-09-03T06:02:10;97801.66;;;21.02;48.63
50057;BME280;36875;49.468;11.200;2022-09-03T06:04:36;97802.13;;;21.04;48.69
50057;BME280;36875;49.468;11.200;2022-09-03T06:07:02;97780.56;;;20.93;48.74
50057;BME280;36875;49.468;11.200;2022-09-03T06:09:28;97795.06;;;21.03;48.74
50057;BME280;36875;49.468;11.200;2022-09-03T06:11:53;97794.56;;;21.01;48.87
50057;BME280;36875;49.468;11.200;2022-09-03T06:14:19;97800.53;;;21.03;48.69
50057;BME280;36875;49.468;11.200;2022-09-03T06:16:47;97790.72;;;21.02;48.78
50057;BME280;36875;49.468;11.200;2022-09-03T06:19:14;97803.75;;;21.05;48.20
50057;BME280;36875;49.468;11.200;2022-09-03T06:21:40;97797.16;;;21.06;48.36
50057;BME280;36875;49.468;11.200;2022-09-03T06:24:08;97797.81;;;21.03;48.54
50057;BME280;36875;49.468;11.200;2022-09-03T06:26:34;97799.41;;;21.04;48.44
50057;BME280;36875;49.468;11.200;2022-09-03T06:29:00;97792.81;;;20.96;48.13
50057;BME280;36875;49.468;11.200;2022-09-03T06:31:26;97782.00;;;20.91;47.96
50057;BME280;36875;49.468;11.200;2022-09-03T06:33:53;97808.75;;;21.03;47.71
50057;BME280;36875;49.468;11.200;2022-09-03T06:36:20;97816.97;;;21.03;47.86
50057;BME280;36875;49.468;11.200;2022-09-03T06:38:49;97806.97;;;20.98;47.89
50057;BME280;36875;49.468;11.200;2022-09-03T06:41:18;97819.34;;;21.04;47.97
50057;BME280;36875;49.468;11.200;2022-09-03T06:43:51;97822.25;;;21.08;47.83
50057;BME280;36875;49.468;11.200;2022-09-03T06:46:19;97811.00;;;21.09;47.88
50057;BME280;36875;49.468;11.200;2022-09-03T06:48:44;97803.75;;;21.13;47.85
50057;BME280;36875;49.468;11.200;2022-09-03T06:51:13;97799.09;;;21.05;48.10
50057;BME280;36875;49.468;11.200;2022-09-03T06:53:41;97823.06;;;21.17;47.90
50057;BME280;36875;49.468;11.200;2022-09-03T06:56:08;97815.50;;;21.23;48.18
50057;BME280;36875;49.468;11.200;2022-09-03T06:58:35;97820.97;;;21.23;47.94
50057;BME280;36875;49.468;11.200;2022-09-03T07:01:02;97816.16;;;21.20;48.01
50057;BME280;36875;49.468;11.200;2022-09-03T07:03:28;97813.91;;;21.22;48.15
50057;BME280;36875;49.468;11.200;2022-09-03T07:05:59;97810.38;;;21.21;47.76
50057;BME280;36875;49.468;11.200;2022-09-03T07:08:26;97820.00;;;21.18;47.87
50057;BME280;36875;49.468;11.200;2022-09-03T07:10:52;97801.84;;;21.14;47.84
50057;BME280;36875;49.468;11.200;2022-09-03T07:13:18;97807.47;;;21.17;47.78
50057;BME280;36875;49.468;11.200;2022-09-03T07:15:44;97796.69;;;21.21;47.70
50057;BME280;36875;49.468;11.200;2022-09-03T07:18:10;97791.38;;;21.25;48.03
50057;BME280;36875;49.468;11.200;2022-09-03T07:20:35;97783.16;;;21.25;47.84
50057;BME280;36875;49.468;11.200;2022-09-03T07:23:01;97789.13;;;21.27;48.01
50057;BME280;36875;49.468;11.200;2022-09-03T07:25:28;97786.53;;;21.30;48.16
50057;BME280;36875;49.468;11.200;2022-09-03T07:27:55;97792.19;;;21.34;47.88
50057;BME280;36875;49.468;11.200;2022-09-03T07:30:22;97768.66;;;21.24;48.14
50057;BME280;36875;49.468;11.200;2022-09-03T07:32:50;97790.09;;;21.40;48.06
50057;BME280;36875;49.468;11.200;2022-09-03T07:35:16;97787.97;;;21.36;48.41
50057;BME280;36875;49.468;11.200;2022-09-03T07:37:43;97797.97;;;21.32;48.37
50057;BME280;36875;49.468;11.200;2022-09-03T07:40:09;97804.09;;;21.29;48.24
50057;BME280;36875;49.468;11.200;2022-09-03T07:42:36;97803.13;;;21.25;47.36
50057;BME280;36875;49.468;11.200;2022-09-03T07:45:05;97811.66;;;21.24;47.54
50057;BME280;36875;49.468;11.200;2022-09-03T07:47:34;97804.56;;;21.23;47.54
50057;BME280;36875;49.468;11.200;2022-09-03T07:50:00;97793.94;;;21.21;47.18
50057;BME280;36875;49.468;11.200;2022-09-03T07:52:25;97808.28;;;21.27;47.46
50057;BME280;36875;49.468;11.200;2022-09-03T07:54:52;97786.22;;;21.23;47.39
50057;BME280;36875;49.468;11.200;2022-09-03T07:57:18;97790.09;;;21.31;47.74
50057;BME280;36875;49.468;11.200;2022-09-03T07:59:44;97784.75;;;21.34;47.44
50057;BME280;36875;49.468;11.200;2022-09-03T08:02:10;97787.97;;;21.36;47.85
50057;BME280;36875;49.468;11.200;2022-09-03T08:04:36;97800.88;;;21.45;47.51
50057;BME280;36875;49.468;11.200;2022-09-03T08:07:02;97782.19;;;21.38;47.69
50057;BME280;36875;49.468;11.200;2022-09-03T08:09:29;97791.53;;;21.46;47.12
50057;BME280;36875;49.468;11.200;2022-09-03T08:11:57;97807.66;;;21.47;47.11
50057;BME280;36875;49.468;11.200;2022-09-03T08:14:23;97811.81;;;21.45;46.95
50057;BME280;36875;49.468;11.200;2022-09-03T08:16:50;97799.88;;;21.41;47.22
50057;BME280;36875;49.468;11.200;2022-09-03T08:19:16;97799.44;;;21.47;47.44
50057;BME280;36875;49.468;11.200;2022-09-03T08:21:43;97791.72;;;21.49;47.69
50057;BME280;36875;49.468;11.200;2022-09-03T08:24:09;97796.88;;;21.60;47.65
50057;BME280;36875;49.468;11.200;2022-09-03T08:26:36;97794.59;;;21.62;47.90
50057;BME280;36875;49.468;11.200;2022-09-03T08:29:03;97784.75;;;21.61;47.61
50057;BME280;36875;49.468;11.200;2022-09-03T08:31:29;97778.97;;;21.62;47.81
50057;BME280;36875;49.468;11.200;2022-09-03T08:33:59;97780.56;;;21.63;47.88
50057;BME280;36875;49.468;11.200;2022-09-03T08:36:28;97793.44;;;21.71;47.72
50057;BME280;36875;49.468;11.200;2022-09-03T08:38:55;97783.81;;;21.65;47.86
50057;BME280;36875;49.468;11.200;2022-09-03T08:41:27;97788.91;;;21.75;47.71
50057;BME280;36875;49.468;11.200;2022-09-03T08:44:14;97783.44;;;21.75;47.61
50057;BME280;36875;49.468;11.200;2022-09-03T08:46:49;97784.91;;;21.73;47.78
50057;BME280;36875;49.468;11.200;2022-09-03T08:49:22;97788.59;;;21.68;47.50
50057;BME280;36875;49.468;11.200;2022-09-03T08:51:49;97781.88;;;21.57;47.25
50057;BME280;36875;49.468;11.200;2022-09-03T08:54:18;97793.78;;;21.61;47.76
50057;BME280;36875;49.468;11.200;2022-09-03T08:56:46;97792.19;;;21.60;47.75
50057;BME280;36875;49.468;11.200;2022-09-03T08:59:12;97791.69;;;21.58;47.64
50057;BME280;36875;49.468;11.200;2022-09-03T09:01:48;97757.41;;;21.34;47.36
50057;BME280;36875;49.468;11.200;2022-09-03T09:04:23;97785.09;;;21.50;46.97
50057;BME280;36875;49.468;11.200;2022-09-03T09:06:58;97791.38;;;21.51;46.92
50057;BME280;36875;49.468;11.200;2022-09-03T09:09:32;97785.44;;;21.49;46.46
50057;BME280;36875;49.468;11.200;2022-09-03T09:12:12;97778.16;;;21.44;46.66
50057;BME280;36875;49.468;11.200;2022-09-03T09:14:45;97774.63;;;21.44;46.10
50057;BME280;36875;49.468;11.200;2022-09-03T09:17:26;97765.75;;;21.38;45.88
50057;BME280;36875;49.468;11.200;2022-09-03T09:20:04;97777.50;;;21.38;45.96
50057;BME280;36875;49.468;11.200;2022-09-03T09:22:36;97767.69;;;21.37;45.47
50057;BME280;36875;49.468;11.200;2022-09-03T09:25:07;97769.78;;;21.41;45.56
50057;BME280;36875;49.468;11.200;2022-09-03T09:27:33;97768.34;;;21.43;45.26
50057;BME280;36875;49.468;11.200;2022-09-03T09:30:04;97764.16;;;21.46;45.14
50057;BME280;36875;49.468;11.200;2022-09-03T09:32:29;97759.81;;;21.45;44.96
50057;BME280;36875;49.468;11.200;2022-09-03T09:34:57;97753.34;;;21.41;44.72
50057;BME280;36875;49.468;11.200;2022-09-03T09:37:23;97756.75;;;21.46;44.66
50057;BME280;36875;49.468;11.200;2022-09-03T09:39:56;97754.34;;;21.45;44.61
50057;BME280;36875;49.468;11.200;2022-09-03T09:42:23;97757.06;;;21.45;44.69
50057;BME280;36875;49.468;11.200;2022-09-03T09:44:48;97749.50;;;21.42;44.66
50057;BME280;36875;49.468;11.200;2022-09-03T09:47:21;97726.50;;;21.34;44.54
50057;BME280;36875;49.468;11.200;2022-09-03T09:49:51;97734.53;;;21.48;44.59
50057;BME280;36875;49.468;11.200;2022-09-03T09:52:20;97727.59;;;21.50;44.16
50057;BME280;36875;49.468;11.200;2022-09-03T09:54:51;97741.28;;;21.50;44.24
50057;BME280;36875;49.468;11.200;2022-09-03T09:57:21;97735.47;;;21.52;44.47
50057;BME280;36875;49.468;11.200;2022-09-03T09:59:47;97733.88;;;21.51;44.50
50057;BME280;36875;49.468;11.200;2022-09-03T10:02:21;97719.06;;;21.52;44.27
50057;BME280;36875;49.468;11.200;2022-09-03T10:04:50;97720.69;;;21.53;44.28
50057;BME280;36875;49.468;11.200;2022-09-03T10:07:26;97725.97;;;21.58;44.59
50057;BME280;36875;49.468;11.200;2022-09-03T10:10:00;97738.22;;;21.61;44.99
50057;BME280;36875;49.468;11.200;2022-09-03T10:12:31;97739.00;;;21.61;45.00
50057;BME280;36875;49.468;11.200;2022-09-03T10:15:06;97741.28;;;21.59;44.92
50057;BME280;36875;49.468;11.200;2022-09-03T10:17:45;97718.75;;;21.45;45.60
50057;BME280;36875;49.468;11.200;2022-09-03T10:20:14;97731.16;;;21.51;45.71
50057;BME280;36875;49.468;11.200;2022-09-03T10:22:56;97735.47;;;21.61;46.27
50057;BME280;36875;49.468;11.200;2022-09-03T10:25:26;97733.22;;;21.63;46.18
50057;BME280;36875;49.468;11.200;2022-09-03T10:27:53;97723.41;;;21.53;46.41
50057;BME280;36875;49.468;11.200;2022-09-03T10:30:20;97736.75;;;21.63;46.56
50057;BME280;36875;49.468;11.200;2022-09-03T10:32:53;97736.09;;;21.66;46.81
50057;BME280;36875;49.468;11.200;2022-09-03T10:35:28;97727.88;;;21.66;46.89
50057;BME280;36875;49.468;11.200;2022-09-03T10:38:06;97728.34;;;21.68;47.20
50057;BME280;36875;49.468;11.200;2022-09-03T10:40:37;97729.13;;;21.78;46.90
50057;BME280;36875;49.468;11.200;2022-09-03T10:43:29;97709.19;;;21.68;46.86
50057;BME280;36875;49.468;11.200;2022-09-03T10:46:02;97709.97;;;21.78;47.09
50057;BME280;36875;49.468;11.200;2022-09-03T10:48:52;97713.66;;;21.82;47.11
50057;BME280;36875;49.468;11.200;2022-09-03T10:51:25;97707.53;;;21.85;47.00
50057;BME280;36875;49.468;11.200;2022-09-03T10:54:13;97713.47;;;21.87;47.44
50057;BME280;36875;49.468;11.200;2022-09-03T10:56:51;97689.97;;;21.86;47.15
50057;BME280;36875;49.468;11.200;2022-09-03T10:59:30;97694.44;;;21.90;47.17
50057;BME280;36875;49.468;11.200;2022-09-03T11:02:05;97691.56;;;21.87;47.45
50057;BME280;36875;49.468;11.200;2022-09-03T11:04:43;97696.56;;;21.85;47.29
50057;BME280;36875;49.468;11.200;2022-09-03T11:07:16;97699.31;;;21.85;47.39
50057;BME280;36875;49.468;11.200;2022-09-03T11:09:51;97696.72;;;21.88;47.31
50057;BME280;36875;49.468;11.200;2022-09-03T11:12:22;97694.75;;;21.89;47.44
50057;BME280;36875;49.468;11.200;2022-09-03T11:14:53;97697.84;;;21.87;47.67
50057;BME280;36875;49.468;11.200;2022-09-03T11:17:24;97689.81;;;21.82;47.45
50057;BME280;36875;49.468;11.200;2022-09-03T11:19:55;97693.34;;;21.83;47.46
50057;BME280;36875;49.468;11.200;2022-09-03T11:22:23;97686.75;;;21.84;47.97
50057;BME280;36875;49.468;11.200;2022-09-03T11:24:54;97690.28;;;21.84;47.76
50057;BME280;36875;49.468;11.200;2022-09-03T11:27:31;97679.66;;;21.83;47.83
50057;BME280;36875;49.468;11.200;2022-09-03T11:30:02;97676.44;;;21.81;47.66
50057;BME280;36875;49.468;11.200;2022-09-03T11:32:43;97673.69;;;21.81;47.81
50057;BME280;36875;49.468;11.200;2022-09-03T11:35:15;97670.31;;;21.84;47.77
50057;BME280;36875;49.468;11.200;2022-09-03T11:37:46;97659.34;;;21.84;47.70
50057;BME280;36875;49.468;11.200;2022-09-03T11:40:16;97667.09;;;21.82;47.70
50057;BME280;36875;49.468;11.200;2022-09-03T11:42:43;97663.06;;;21.79;47.71
50057;BME280;36875;49.468;11.200;2022-09-03T11:45:20;97665.16;;;21.82;48.00
50057;BME280;36875;49.468;11.200;2022-09-03T11:47:46;97653.72;;;21.80;47.97
50057;BME280;36875;49.468;11.200;2022-09-03T11:50:17;97668.69;;;21.83;48.24
50057;BME280;36875;49.468;11.200;2022-09-03T11:52:46;97649.22;;;21.75;47.87
50057;BME280;36875;49.468;11.200;2022-09-03T11:55:11;97667.56;;;21.84;48.08
50057;BME280;36875;49.468;11.200;2022-09-03T11:57:49;97674.31;;;21.86;48.22
50057;BME280;36875;49.468;11.200;2022-09-03T12:00:17;97672.84;;;21.89;48.06
50057;BME280;36875;49.468;11.200;2022-09-03T12:02:48;97672.69;;;21.85;48.24
50057;BME280;36875;49.468;11.200;2022-09-03T12:05:25;97669.63;;;21.87;48.18
50057;BME280;36875;49.468;11.200;2022-09-03T12:10:50;97667.03;;;21.90;48.10
50057;BME280;36875;49.468;11.200;2022-09-03T12:13:27;97659.75;;;21.94;48.07
50057;BME280;36875;49.468;11.200;2022-09-03T12:18:46;97655.41;;;22.02;48.03
50057;BME280;36875;49.468;11.200;2022-09-03T12:21:17;97657.00;;;22.03;48.05
50057;BME280;36875;49.468;11.200;2022-09-03T12:23:45;97651.97;;;22.05;48.15
50057;BME280;36875;49.468;11.200;2022-09-03T12:26:13;97656.53;;;22.01;48.14
50057;BME280;36875;49.468;11.200;2022-09-03T12:28:42;97639.31;;;21.92;48.20
50057;BME280;36875;49.468;11.200;2022-09-03T12:31:14;97656.84;;;22.00;48.22
50057;BME280;36875;49.468;11.200;2022-09-03T12:33:49;97648.78;;;22.03;48.02
50057;BME280;36875;49.468;11.200;2022-09-03T12:36:16;97661.66;;;22.03;47.95
50057;BME280;36875;49.468;11.200;2022-09-03T12:38:42;97642.81;;;22.01;48.29
50057;BME280;36875;49.468;11.200;2022-09-03T12:41:19;97652.97;;;22.01;48.12
50057;BME280;36875;49.468;11.200;2022-09-03T12:43:50;97642.22;;;21.95;48.32
50057;BME280;36875;49.468;11.200;2022-09-03T12:46:15;97638.34;;;21.97;48.18
50057;BME280;36875;49.468;11.200;2022-09-03T12:48:51;97641.22;;;22.00;48.40
50057;BME280;36875;49.468;11.200;2022-09-03T12:51:16;97652.50;;;21.99;48.29
50057;BME280;36875;49.468;11.200;2022-09-03T12:53:42;97650.56;;;21.99;48.00
50057;BME280;36875;49.468;11.200;2022-09-03T12:56:08;97649.59;;;22.04;48.16
50057;BME280;36875;49.468;11.200;2022-09-03T12:58:37;97645.56;;;22.01;48.06
50057;BME280;36875;49.468;11.200;2022-09-03T13:01:10;97641.38;;;22.04;48.30
50057;BME280;36875;49.468;11.200;2022-09-03T13:03:43;97640.88;;;22.02;48.47
50057;BME280;36875;49.468;11.200;2022-09-03T13:06:12;97643.31;;;21.94;48.26
50057;BME280;36875;49.468;11.200;2022-09-03T13:08:43;97644.81;;;21.92;48.41
50057;BME280;36875;49.468;11.200;2022-09-03T13:11:14;97648.34;;;21.92;48.61
50057;BME280;36875;49.468;11.200;2022-09-03T13:13:51;97645.13;;;21.90;48.75